createdAt,value
2018-09-23T00:01:02.153Z,99.90
2018-09-23T00:03:32.072Z,99.90
2018-09-23T00:06:08.946Z,99.90
2018-09-23T00:08:38.944Z,99.90
2018-09-23T00:11:13.826Z,99.90
2018-09-23T00:13:44.980Z,99.90
2018-09-23T00:16:14.724Z,99.90
2018-09-23T00:18:47.197Z,99.90
2018-09-23T00:21:17.223Z,99.90
2018-09-23T00:23:47.312Z,99.90
2018-09-23T00:26:16.946Z,99.90
2018-09-23T00:28:46.569Z,99.90
2018-09-23T00:31:17.720Z,99.90
2018-09-23T00:33:47.161Z,99.90
2018-09-23T00:36:16.609Z,99.90
2018-09-23T00:38:46.167Z,99.90
2018-09-23T00:41:15.499Z,99.90
2018-09-23T00:43:45.185Z,99.90
2018-09-23T00:46:27.133Z,99.90
2018-09-23T00:48:56.383Z,99.90
2018-09-23T00:51:25.653Z,99.90
2018-09-23T00:53:56.641Z,99.90
2018-09-23T00:56:25.862Z,99.90
2018-09-23T00:58:55.798Z,99.90
2018-09-23T01:01:25.198Z,99.90
2018-09-23T01:03:55.190Z,99.90
2018-09-23T01:06:24.719Z,99.90
2018-09-23T01:08:59.292Z,99.90
2018-09-23T01:11:28.937Z,99.90
2018-09-23T01:13:58.767Z,99.90
2018-09-23T01:16:28.209Z,99.90
2018-09-23T01:18:59.043Z,99.90
2018-09-23T01:21:28.651Z,99.90
2018-09-23T01:23:59.132Z,99.90
2018-09-23T01:26:28.557Z,99.90
2018-09-23T01:28:58.555Z,99.90
2018-09-23T01:31:28.026Z,99.90
2018-09-23T01:33:57.730Z,99.90
2018-09-23T01:36:27.071Z,99.90
2018-09-23T01:38:57.173Z,99.90
2018-09-23T01:41:26.684Z,99.90
2018-09-23T01:43:56.819Z,99.90
2018-09-23T01:46:26.162Z,99.90
2018-09-23T01:48:55.558Z,99.90
2018-09-23T01:51:24.920Z,99.90
2018-09-23T01:53:54.334Z,99.90
2018-09-23T01:56:23.866Z,99.90
2018-09-23T01:58:53.393Z,99.90
2018-09-23T02:01:22.972Z,99.90
2018-09-23T02:03:52.452Z,99.90
2018-09-23T02:06:21.917Z,99.90
2018-09-23T02:08:51.184Z,99.90
2018-09-23T02:11:20.556Z,99.90
2018-09-23T02:13:49.760Z,99.90
2018-09-23T02:16:24.478Z,99.90
2018-09-23T02:18:54.002Z,99.90
2018-09-23T02:21:26.830Z,99.90
2018-09-23T02:23:56.330Z,99.90
2018-09-23T02:26:25.549Z,99.90
2018-09-23T02:29:02.383Z,99.90
2018-09-23T02:31:31.739Z,99.90
2018-09-23T02:34:02.653Z,99.90
2018-09-23T02:36:32.402Z,99.90
2018-09-23T02:39:02.300Z,99.90
2018-09-23T02:41:32.647Z,99.90
2018-09-23T02:44:02.801Z,99.90
2018-09-23T02:46:32.433Z,99.90
2018-09-23T02:49:02.517Z,99.90
2018-09-23T02:51:32.009Z,99.90
2018-09-23T02:54:01.595Z,99.90
2018-09-23T02:56:34.748Z,99.90
2018-09-23T02:59:04.800Z,99.90
2018-09-23T03:01:33.962Z,99.90
2018-09-23T03:04:03.812Z,99.90
2018-09-23T03:06:33.004Z,99.90
2018-09-23T03:09:02.758Z,99.90
2018-09-23T03:11:32.905Z,99.90
2018-09-23T03:14:02.829Z,99.90
2018-09-23T03:16:32.500Z,99.90
2018-09-23T03:19:06.378Z,99.90
2018-09-23T03:21:35.564Z,99.90
2018-09-23T03:24:11.173Z,99.90
2018-09-23T03:26:40.748Z,99.90
2018-09-23T03:29:10.055Z,99.90
2018-09-23T03:31:39.393Z,99.90
2018-09-23T03:34:08.806Z,99.90
2018-09-23T03:36:38.203Z,99.90
2018-09-23T03:39:08.099Z,99.90
2018-09-23T03:41:43.016Z,99.90
2018-09-23T03:44:12.359Z,99.90
2018-09-23T03:46:43.819Z,99.90
2018-09-23T03:49:13.484Z,99.90
2018-09-23T03:51:48.753Z,99.90
2018-09-23T03:54:18.091Z,99.90
2018-09-23T03:56:47.308Z,99.90
2018-09-23T03:59:16.659Z,99.90
2018-09-23T04:01:46.591Z,99.90
2018-09-23T04:04:16.424Z,99.90
2018-09-23T04:06:52.211Z,99.90
2018-09-23T04:09:21.731Z,99.90
2018-09-23T04:11:51.249Z,99.90
2018-09-23T04:14:24.586Z,99.90
2018-09-23T04:16:54.000Z,99.90
2018-09-23T04:19:25.820Z,99.90
2018-09-23T04:21:55.019Z,99.90
2018-09-23T04:24:24.361Z,99.90
2018-09-23T04:26:53.625Z,99.90
2018-09-23T04:29:23.507Z,99.90
2018-09-23T04:31:52.911Z,99.90
2018-09-23T04:34:29.520Z,99.90
2018-09-23T04:36:58.710Z,99.90
2018-09-23T04:39:28.610Z,99.90
2018-09-23T04:41:58.224Z,99.90
2018-09-23T04:44:27.706Z,99.90
2018-09-23T04:46:57.520Z,99.90
2018-09-23T04:49:26.982Z,99.90
2018-09-23T04:51:56.347Z,99.90
2018-09-23T04:54:25.904Z,99.90
2018-09-23T04:56:57.502Z,99.90
2018-09-23T04:59:26.809Z,99.90
2018-09-23T05:02:00.974Z,99.90
2018-09-23T05:04:30.724Z,99.90
2018-09-23T05:07:00.679Z,99.90
2018-09-23T05:09:30.597Z,99.90
2018-09-23T05:12:00.502Z,99.90
2018-09-23T05:14:30.745Z,99.90
2018-09-23T05:17:00.952Z,99.90
2018-09-23T05:19:37.566Z,99.90
2018-09-23T05:22:07.435Z,99.90
2018-09-23T05:24:37.525Z,99.90
2018-09-23T05:27:07.836Z,99.90
2018-09-23T05:29:41.450Z,99.90
2018-09-23T05:32:11.814Z,99.90
2018-09-23T05:34:42.912Z,99.90
2018-09-23T05:37:13.314Z,99.90
2018-09-23T05:39:43.013Z,99.90
2018-09-23T05:42:13.624Z,99.90
2018-09-23T05:44:43.439Z,99.90
2018-09-23T05:47:13.994Z,99.90
2018-09-23T05:49:43.930Z,99.90
2018-09-23T05:52:15.315Z,99.90
2018-09-23T05:54:45.236Z,99.90
2018-09-23T05:57:16.663Z,99.90
2018-09-23T05:59:46.863Z,99.90
2018-09-23T06:02:16.879Z,99.90
2018-09-23T06:04:46.466Z,99.90
2018-09-23T06:07:16.416Z,99.90
2018-09-23T06:09:48.067Z,99.90
2018-09-23T06:12:18.150Z,99.90
2018-09-23T06:14:48.113Z,99.90
2018-09-23T06:17:21.399Z,99.90
2018-09-23T06:19:51.536Z,99.90
2018-09-23T06:22:23.164Z,99.90
2018-09-23T06:24:53.238Z,99.90
2018-09-23T06:27:23.566Z,99.90
2018-09-23T06:29:53.499Z,99.90
2018-09-23T06:32:23.794Z,99.50
2018-09-23T06:34:54.057Z,99.90
2018-09-23T06:37:24.292Z,99.90
2018-09-23T06:39:54.540Z,99.90
2018-09-23T06:42:24.823Z,99.90
2018-09-23T06:45:02.115Z,99.90
2018-09-23T06:47:32.213Z,99.40
2018-09-23T06:50:02.131Z,99.60
2018-09-23T06:52:32.033Z,98.90
2018-09-23T06:55:07.521Z,99.00
2018-09-23T06:57:39.441Z,99.90
2018-09-23T07:00:16.500Z,99.40
2018-09-23T07:02:46.836Z,99.00
2018-09-23T07:06:20.645Z,98.90
2018-09-23T07:08:52.513Z,98.90
2018-09-23T07:11:23.810Z,98.80
2018-09-23T07:13:53.992Z,99.10
2018-09-23T07:16:24.194Z,98.80
2018-09-23T07:18:57.078Z,99.10
2018-09-23T07:21:27.380Z,98.80
2018-09-23T07:23:57.251Z,98.30
2018-09-23T07:26:27.418Z,98.80
2018-09-23T07:28:57.878Z,99.10
2018-09-23T07:31:27.949Z,98.80
2018-09-23T07:33:58.137Z,98.40
2018-09-23T07:36:33.790Z,98.00
2018-09-23T07:39:05.741Z,98.40
2018-09-23T07:41:35.757Z,98.30
2018-09-23T07:44:06.122Z,97.50
2018-09-23T07:46:37.256Z,98.00
2018-09-23T07:49:07.890Z,97.30
2018-09-23T07:51:38.950Z,97.50
2018-09-23T07:54:09.059Z,97.60
2018-09-23T07:56:40.406Z,97.90
2018-09-23T07:59:10.324Z,98.00
2018-09-23T08:01:40.455Z,98.90
2018-09-23T08:04:10.203Z,97.70
2018-09-23T08:06:40.821Z,98.10
2018-09-23T08:09:12.141Z,97.80
2018-09-23T08:11:42.838Z,97.20
2018-09-23T08:14:14.343Z,96.90
2018-09-23T08:16:44.066Z,97.10
2018-09-23T08:19:15.774Z,97.50
2018-09-23T08:21:45.863Z,98.00
2018-09-23T08:24:25.713Z,97.70
2018-09-23T08:26:57.203Z,96.70
2018-09-23T08:29:28.285Z,97.60
2018-09-23T08:32:02.982Z,96.70
2018-09-23T08:34:34.028Z,97.10
2018-09-23T08:37:06.341Z,97.20
2018-09-23T08:39:40.517Z,96.90
2018-09-23T08:42:16.966Z,96.80
2018-09-23T08:44:48.008Z,97.10
2018-09-23T08:47:23.573Z,97.10
2018-09-23T08:49:53.709Z,97.10
2018-09-23T08:52:24.550Z,96.80
2018-09-23T08:54:57.391Z,97.70
2018-09-23T08:57:28.261Z,97.50
2018-09-23T09:00:01.891Z,97.50
2018-09-23T09:02:32.318Z,97.40
2018-09-23T09:05:02.364Z,97.50
2018-09-23T09:07:37.567Z,97.60
2018-09-23T09:10:07.880Z,97.60
2018-09-23T09:12:38.562Z,97.30
2018-09-23T09:15:09.138Z,97.10
2018-09-23T09:17:39.796Z,97.70
2018-09-23T09:20:14.411Z,97.80
2018-09-23T09:22:44.618Z,98.10
2018-09-23T09:25:14.565Z,98.10
2018-09-23T09:27:44.757Z,97.70
2018-09-23T09:30:15.423Z,97.70
2018-09-23T09:32:45.833Z,97.90
2018-09-23T09:35:16.276Z,97.50
2018-09-23T09:37:48.679Z,97.30
2018-09-23T09:40:22.189Z,97.30
2018-09-23T09:42:53.228Z,98.10
2018-09-23T09:45:24.324Z,98.00
2018-09-23T09:47:56.953Z,97.90
2018-09-23T09:50:27.144Z,97.00
2018-09-23T09:53:02.046Z,97.70
2018-09-23T09:55:32.303Z,97.60
2018-09-23T09:58:02.727Z,98.00
2018-09-23T10:00:34.627Z,98.00
2018-09-23T10:03:08.986Z,98.00
2018-09-23T10:05:39.769Z,97.60
2018-09-23T10:08:10.683Z,97.70
2018-09-23T10:10:41.771Z,98.00
2018-09-23T10:13:11.948Z,98.60
2018-09-23T10:15:43.073Z,97.90
2018-09-23T10:18:13.872Z,99.00
2018-09-23T10:20:44.119Z,98.70
2018-09-23T10:23:14.735Z,98.50
2018-09-23T10:25:45.632Z,98.90
2018-09-23T10:28:16.446Z,98.70
2018-09-23T10:30:46.722Z,99.20
2018-09-23T10:33:17.500Z,99.00
2018-09-23T10:35:47.760Z,99.60
2018-09-23T10:38:20.372Z,99.50
2018-09-23T10:40:50.691Z,99.90
2018-09-23T10:43:21.284Z,99.90
2018-09-23T10:45:51.574Z,99.90
2018-09-23T10:48:22.268Z,99.90
2018-09-23T10:50:53.049Z,99.90
2018-09-23T10:53:23.191Z,99.90
2018-09-23T10:55:53.474Z,99.90
2018-09-23T10:58:24.122Z,99.90
2018-09-23T11:00:54.728Z,99.90
2018-09-23T11:03:24.363Z,99.90
2018-09-23T11:05:55.045Z,99.90
2018-09-23T11:08:25.507Z,99.90
2018-09-23T11:10:55.421Z,99.90
2018-09-23T11:13:25.304Z,99.90
2018-09-23T11:15:56.112Z,99.90
2018-09-23T11:18:26.532Z,99.90
2018-09-23T11:20:56.466Z,99.90
2018-09-23T11:23:28.707Z,99.90
2018-09-23T11:25:58.685Z,99.90
2018-09-23T11:28:29.410Z,99.90
2018-09-23T11:30:59.651Z,99.90
2018-09-23T11:33:30.149Z,99.80
2018-09-23T11:36:00.201Z,99.90
2018-09-23T11:38:31.333Z,99.90
2018-09-23T11:41:01.217Z,99.90
2018-09-23T11:43:32.856Z,99.30
2018-09-23T11:46:03.042Z,99.40
2018-09-23T11:48:33.147Z,99.20
2018-09-23T11:51:03.716Z,98.20
2018-09-23T11:53:35.136Z,98.50
2018-09-23T11:56:06.136Z,99.40
2018-09-23T11:58:36.600Z,99.80
2018-09-23T12:01:07.195Z,99.90
2018-09-23T12:03:38.269Z,99.90
2018-09-23T12:06:08.777Z,99.90
2018-09-23T12:08:38.873Z,99.90
2018-09-23T12:11:09.082Z,99.90
2018-09-23T12:13:41.177Z,99.90
2018-09-23T12:16:11.711Z,99.90
2018-09-23T12:18:42.445Z,99.90
2018-09-23T12:21:12.760Z,99.90
2018-09-23T12:23:43.980Z,99.90
2018-09-23T12:26:14.602Z,99.90
2018-09-23T12:28:45.576Z,99.90
2018-09-23T12:31:16.660Z,99.90
2018-09-23T12:33:47.777Z,99.90
2018-09-23T12:36:18.400Z,99.90
2018-09-23T12:38:48.076Z,99.90
2018-09-23T12:41:20.239Z,99.90
2018-09-23T12:43:50.987Z,99.90
2018-09-23T12:46:21.329Z,99.90
2018-09-23T12:48:51.295Z,99.90
2018-09-23T12:51:21.459Z,99.90
2018-09-23T12:53:52.161Z,99.90
2018-09-23T12:56:22.141Z,99.90
2018-09-23T12:58:52.118Z,99.90
2018-09-23T13:01:22.131Z,99.90
2018-09-23T13:03:51.706Z,99.90
2018-09-23T13:06:22.294Z,99.90
2018-09-23T13:08:52.501Z,99.90
2018-09-23T13:11:22.600Z,99.90
2018-09-23T13:13:52.687Z,99.80
2018-09-23T13:16:22.593Z,99.90
2018-09-23T13:18:53.062Z,99.90
2018-09-23T13:21:23.070Z,99.90
2018-09-23T13:23:54.564Z,99.90
2018-09-23T13:26:25.011Z,99.90
2018-09-23T13:28:55.010Z,99.90
2018-09-23T13:31:24.982Z,99.90
2018-09-23T13:33:55.443Z,99.90
2018-09-23T13:36:25.592Z,99.90
2018-09-23T13:38:55.863Z,99.90
2018-09-23T13:41:26.322Z,99.90
2018-09-23T13:43:56.536Z,99.90
2018-09-23T13:46:26.665Z,99.90
2018-09-23T13:48:58.145Z,99.40
2018-09-23T13:51:34.949Z,99.90
2018-09-23T13:54:05.983Z,99.90
2018-09-23T13:56:37.680Z,99.70
2018-09-23T13:59:09.290Z,99.80
2018-09-23T14:01:41.328Z,99.90
2018-09-23T14:04:11.492Z,99.90
2018-09-23T14:06:41.661Z,99.90
2018-09-23T14:09:11.981Z,99.90
2018-09-23T14:11:42.722Z,99.90
2018-09-23T14:14:13.472Z,99.90
2018-09-23T14:16:44.916Z,99.90
2018-09-23T14:19:18.255Z,99.90
2018-09-23T14:21:52.764Z,99.90
2018-09-23T14:24:22.433Z,99.90
2018-09-23T14:26:52.926Z,99.90
2018-09-23T14:29:23.059Z,99.90
2018-09-23T14:31:55.290Z,99.90
2018-09-23T14:34:25.721Z,99.90
2018-09-23T14:36:55.905Z,99.90
2018-09-23T14:39:25.554Z,99.90
2018-09-23T14:41:55.748Z,99.90
2018-09-23T14:44:26.143Z,99.90
2018-09-23T14:46:57.073Z,99.80
2018-09-23T14:49:28.001Z,99.90
2018-09-23T14:51:58.317Z,99.90
2018-09-23T14:54:29.175Z,99.80
2018-09-23T14:57:02.230Z,99.90
2018-09-23T14:59:32.982Z,99.90
2018-09-23T15:02:03.078Z,99.80
2018-09-23T15:04:34.593Z,99.70
2018-09-23T15:07:05.105Z,99.40
2018-09-23T15:09:35.114Z,99.70
2018-09-23T15:12:05.276Z,99.50
2018-09-23T15:14:36.049Z,98.90
2018-09-23T15:17:06.765Z,99.40
2018-09-23T15:19:36.685Z,99.20
2018-09-23T15:22:07.019Z,99.50
2018-09-23T15:24:37.414Z,99.80
2018-09-23T15:27:07.945Z,99.10
2018-09-23T15:29:38.188Z,98.80
2018-09-23T15:32:08.002Z,99.00
2018-09-23T15:34:37.518Z,99.20
2018-09-23T15:37:08.452Z,99.20
2018-09-23T15:39:38.170Z,99.90
2018-09-23T15:42:07.959Z,99.80
2018-09-23T15:44:37.585Z,99.90
2018-09-23T15:47:08.048Z,99.50
2018-09-23T15:49:38.318Z,99.70
2018-09-23T15:52:08.220Z,99.20
2018-09-23T15:54:37.836Z,98.30
2018-09-23T15:57:07.688Z,97.40
2018-09-23T15:59:37.552Z,97.90
2018-09-23T16:02:07.360Z,97.50
2018-09-23T16:04:37.332Z,98.30
2018-09-23T16:07:07.164Z,97.80
2018-09-23T16:09:36.708Z,97.70
2018-09-23T16:12:10.384Z,98.10
2018-09-23T16:14:40.680Z,97.60
2018-09-23T16:17:10.999Z,97.40
2018-09-23T16:19:41.742Z,97.20
2018-09-23T16:22:12.040Z,97.70
2018-09-23T16:24:42.494Z,98.00
2018-09-23T16:27:18.501Z,98.10
2018-09-23T16:29:49.038Z,98.60
2018-09-23T16:32:18.963Z,97.90
2018-09-23T16:34:49.681Z,98.20
2018-09-23T16:37:19.538Z,98.40
2018-09-23T16:39:49.989Z,98.40
2018-09-23T16:42:20.426Z,98.10
2018-09-23T16:44:50.979Z,98.50
2018-09-23T16:47:20.864Z,98.80
2018-09-23T16:49:51.184Z,98.70
2018-09-23T16:52:21.640Z,98.00
2018-09-23T16:54:51.467Z,98.20
2018-09-23T16:57:21.716Z,98.40
2018-09-23T16:59:51.898Z,98.20
2018-09-23T17:02:22.364Z,98.00
2018-09-23T17:09:17.205Z,97.90
2018-09-23T17:11:47.233Z,97.90
2018-09-23T17:14:17.455Z,98.00
2018-09-23T17:16:47.172Z,98.10
2018-09-23T17:19:17.237Z,98.60
2018-09-23T17:21:47.638Z,99.00
2018-09-23T17:24:18.377Z,99.00
2018-09-23T17:26:48.095Z,99.30
2018-09-23T17:29:18.540Z,99.20
2018-09-23T17:31:48.824Z,99.00
2018-09-23T17:34:18.792Z,99.10
2018-09-23T17:36:50.714Z,99.50
2018-09-23T17:39:22.003Z,99.90
2018-09-23T17:42:21.170Z,99.90
2018-09-23T17:44:52.673Z,99.90
2018-09-23T17:47:23.479Z,99.90
2018-09-23T17:52:50.709Z,99.90
2018-09-23T17:55:23.748Z,99.90
2018-09-23T17:57:59.285Z,99.90
2018-09-23T18:00:31.593Z,99.90
2018-09-23T18:03:07.372Z,99.90
2018-09-23T18:05:37.599Z,99.90
2018-09-23T18:08:08.604Z,99.90
2018-09-23T18:10:40.093Z,99.90
2018-09-23T18:13:11.433Z,99.90
2018-09-23T18:15:42.896Z,99.90
2018-09-23T18:18:14.294Z,99.90
2018-09-23T18:20:45.322Z,99.90
2018-09-23T18:23:16.758Z,99.90
2018-09-23T18:25:48.795Z,99.90
2018-09-23T18:28:19.883Z,99.90
2018-09-23T18:30:55.204Z,99.90
2018-09-23T18:33:26.452Z,99.90
2018-09-23T18:35:57.952Z,99.90
2018-09-23T18:38:29.276Z,99.90
2018-09-23T18:41:01.259Z,99.90
2018-09-23T18:43:32.220Z,99.90
2018-09-23T18:46:03.821Z,99.90
2018-09-23T18:48:35.062Z,99.90
2018-09-23T18:51:06.540Z,99.90
2018-09-23T18:53:38.657Z,99.90
2018-09-23T18:56:09.853Z,99.90
2018-09-23T18:58:40.961Z,99.90
2018-09-23T19:01:11.953Z,99.90
2018-09-23T19:03:43.328Z,99.90
2018-09-23T19:06:15.327Z,99.90
2018-09-23T19:08:45.947Z,99.90
2018-09-23T19:11:16.838Z,99.90
2018-09-23T19:13:55.582Z,99.90
2018-09-23T19:16:30.302Z,99.90
2018-09-23T19:19:02.280Z,99.90
2018-09-23T19:21:33.347Z,99.90
2018-09-23T19:24:04.152Z,99.90
2018-09-23T19:26:35.052Z,99.90
2018-09-23T19:29:06.318Z,99.90
2018-09-23T19:31:38.009Z,99.90
2018-09-23T19:34:08.615Z,99.90
2018-09-23T19:36:40.047Z,99.90
2018-09-23T19:39:11.810Z,99.90
2018-09-23T19:41:43.105Z,99.90
2018-09-23T19:44:20.295Z,99.90
2018-09-23T19:46:55.211Z,99.90
2018-09-23T19:49:33.833Z,99.90
2018-09-23T19:52:05.931Z,99.90
2018-09-23T19:54:37.573Z,99.90
2018-09-23T19:57:11.298Z,99.90
2018-09-23T19:59:44.462Z,99.90
2018-09-23T20:02:17.753Z,99.90
2018-09-23T20:04:50.439Z,99.90
2018-09-23T20:07:22.756Z,99.90
2018-09-23T20:09:55.674Z,99.90
2018-09-23T20:12:27.803Z,99.90
2018-09-23T20:15:01.213Z,99.90
2018-09-23T20:18:06.286Z,99.90
2018-09-23T20:20:38.636Z,99.90
2018-09-23T20:23:10.617Z,99.90
2018-09-23T20:25:43.423Z,99.90
2018-09-23T20:28:15.111Z,99.90
2018-09-23T20:30:47.504Z,99.90
2018-09-23T20:33:19.976Z,99.90
2018-09-23T20:35:58.495Z,99.90
2018-09-23T20:38:30.138Z,99.90
2018-09-23T20:41:02.911Z,99.90
2018-09-23T20:43:34.946Z,99.90
2018-09-23T20:46:06.875Z,99.90
2018-09-23T20:48:38.101Z,99.90
2018-09-23T20:51:09.023Z,99.90
2018-09-23T20:53:40.833Z,99.90
2018-09-23T20:56:12.024Z,99.90
2018-09-23T20:58:43.051Z,99.90
2018-09-23T21:01:14.480Z,99.90
2018-09-23T21:03:45.260Z,99.90
2018-09-23T21:06:16.314Z,99.90
2018-09-23T21:08:48.125Z,99.90
2018-09-23T21:11:19.719Z,99.90
2018-09-23T21:13:50.551Z,99.90
2018-09-23T21:19:12.717Z,99.90
2018-09-23T21:21:43.350Z,99.90
2018-09-23T21:24:14.370Z,99.90
2018-09-23T21:26:46.635Z,99.90
2018-09-23T21:29:18.957Z,99.90
2018-09-23T21:31:51.283Z,99.90
2018-09-23T21:34:22.281Z,99.90
2018-09-23T21:36:54.163Z,99.90
2018-09-23T21:39:25.274Z,99.90
2018-09-23T21:41:55.875Z,99.90
2018-09-23T21:44:26.668Z,99.90
2018-09-23T21:46:57.486Z,99.90
2018-09-23T21:49:28.081Z,99.90
2018-09-23T21:51:59.478Z,99.90
2018-09-23T21:54:31.315Z,99.90
2018-09-23T21:57:02.497Z,99.90
2018-09-23T21:59:33.495Z,99.90
2018-09-23T22:02:04.096Z,99.90
2018-09-23T22:04:34.956Z,99.90
2018-09-23T22:07:06.600Z,99.90
2018-09-23T22:09:37.546Z,99.90
2018-09-23T22:12:08.792Z,99.90
2018-09-23T22:14:39.103Z,99.90
2018-09-23T22:17:08.806Z,99.90
2018-09-23T22:19:39.400Z,99.90
2018-09-23T22:22:09.484Z,99.90
2018-09-23T22:24:39.926Z,99.90
2018-09-23T22:27:10.220Z,99.90
2018-09-23T22:29:40.031Z,99.90
2018-09-23T22:32:09.650Z,99.90
2018-09-23T22:34:39.867Z,99.90
2018-09-23T22:37:09.762Z,99.90
2018-09-23T22:39:42.379Z,99.90
2018-09-23T22:42:12.616Z,99.90
2018-09-23T22:44:42.633Z,99.90
2018-09-23T22:47:13.121Z,99.90
2018-09-23T22:49:43.243Z,99.90
2018-09-23T22:52:13.477Z,99.90
2018-09-23T22:54:43.535Z,99.90
2018-09-23T22:57:13.519Z,99.90
2018-09-23T22:59:43.229Z,99.90
2018-09-23T23:02:19.044Z,99.90
2018-09-23T23:04:48.563Z,99.90
2018-09-23T23:07:18.803Z,99.90
2018-09-23T23:09:49.155Z,99.90
2018-09-23T23:12:20.676Z,99.90
2018-09-23T23:14:50.633Z,99.90
2018-09-23T23:17:20.817Z,99.90
2018-09-23T23:19:50.874Z,99.90
2018-09-23T23:22:20.975Z,99.90
2018-09-23T23:24:51.018Z,99.90
2018-09-23T23:27:21.198Z,99.90
2018-09-23T23:29:51.503Z,99.90
2018-09-23T23:32:21.488Z,99.90
2018-09-23T23:34:51.572Z,99.90
2018-09-23T23:37:21.374Z,99.90
2018-09-23T23:39:52.827Z,99.90
2018-09-23T23:42:22.996Z,99.90
2018-09-23T23:44:52.972Z,99.90
2018-09-23T23:47:23.348Z,99.90
2018-09-23T23:49:53.441Z,99.90
2018-09-23T23:52:23.206Z,99.90
2018-09-23T23:54:52.857Z,99.90
2018-09-23T23:57:24.603Z,99.90
2018-09-23T23:59:54.669Z,99.90
